createdAt,value
2022-10-19T00:01:19.624Z,100.00
2022-10-19T00:03:51.332Z,100.00
2022-10-19T00:06:25.451Z,100.00
2022-10-19T00:08:56.366Z,100.00
2022-10-19T00:11:25.766Z,100.00
2022-10-19T00:13:56.791Z,100.00
2022-10-19T00:16:27.018Z,100.00
2022-10-19T00:18:59.105Z,100.00
2022-10-19T00:21:28.044Z,100.00
2022-10-19T00:23:58.270Z,100.00
2022-10-19T00:26:27.571Z,100.00
2022-10-19T00:28:57.091Z,100.00
2022-10-19T00:31:26.258Z,100.00
2022-10-19T00:33:56.962Z,100.00
2022-10-19T00:36:27.762Z,100.00
2022-10-19T00:38:58.783Z,100.00
2022-10-19T00:41:29.913Z,100.00
2022-10-19T00:44:00.340Z,100.00
2022-10-19T00:46:31.034Z,100.00
2022-10-19T00:49:02.146Z,100.00
2022-10-19T00:51:32.620Z,100.00
2022-10-19T00:54:05.026Z,100.00
2022-10-19T00:56:34.564Z,100.00
2022-10-19T00:59:04.366Z,100.00
2022-10-19T01:01:34.135Z,100.00
2022-10-19T01:04:03.103Z,100.00
2022-10-19T01:06:32.285Z,100.00
2022-10-19T01:09:00.903Z,100.00
2022-10-19T01:11:41.245Z,100.00
2022-10-19T01:14:24.916Z,100.00
2022-10-19T01:16:59.779Z,100.00
2022-10-19T01:19:46.147Z,100.00
2022-10-19T01:22:22.958Z,100.00
2022-10-19T01:25:01.085Z,100.00
2022-10-19T01:27:43.344Z,100.00
2022-10-19T01:30:18.155Z,100.00
2022-10-19T01:32:56.135Z,100.00
2022-10-19T01:35:29.086Z,100.00
2022-10-19T01:38:06.134Z,100.00
2022-10-19T01:40:41.527Z,100.00
2022-10-19T01:43:13.879Z,100.00
2022-10-19T01:45:46.804Z,100.00
2022-10-19T01:48:17.169Z,100.00
2022-10-19T01:50:49.237Z,100.00
2022-10-19T01:53:19.253Z,100.00
2022-10-19T01:55:50.426Z,100.00
2022-10-19T01:58:22.497Z,100.00
2022-10-19T02:00:54.269Z,100.00
2022-10-19T02:03:23.775Z,100.00
2022-10-19T02:05:53.884Z,100.00
2022-10-19T02:08:26.156Z,100.00
2022-10-19T02:10:54.976Z,100.00
2022-10-19T02:13:24.421Z,100.00
2022-10-19T02:15:56.324Z,100.00
2022-10-19T02:18:27.952Z,100.00
2022-10-19T02:20:56.941Z,100.00
2022-10-19T02:23:26.717Z,100.00
2022-10-19T02:25:55.707Z,100.00
2022-10-19T02:31:00.416Z,100.00
2022-10-19T02:33:30.153Z,100.00
2022-10-19T02:35:58.948Z,100.00
2022-10-19T02:38:27.953Z,100.00
2022-10-19T02:41:01.940Z,100.00
2022-10-19T02:43:31.425Z,100.00
2022-10-19T02:46:04.159Z,100.00
2022-10-19T02:48:34.728Z,100.00
2022-10-19T02:51:03.491Z,100.00
2022-10-19T02:53:32.139Z,100.00
2022-10-19T02:56:00.752Z,100.00
2022-10-19T02:58:29.334Z,100.00
2022-10-19T03:00:57.973Z,100.00
2022-10-19T03:03:27.906Z,100.00
2022-10-19T03:05:56.523Z,100.00
2022-10-19T03:08:25.274Z,100.00
2022-10-19T03:10:53.838Z,100.00
2022-10-19T03:13:22.492Z,100.00
2022-10-19T03:15:51.162Z,100.00
2022-10-19T03:18:19.757Z,100.00
2022-10-19T03:20:49.747Z,100.00
2022-10-19T03:23:18.453Z,100.00
2022-10-19T03:25:47.046Z,100.00
2022-10-19T03:28:15.610Z,100.00
2022-10-19T03:30:44.168Z,100.00
2022-10-19T03:33:12.832Z,100.00
2022-10-19T03:35:41.453Z,100.00
2022-10-19T03:38:11.408Z,100.00
2022-10-19T03:40:40.134Z,100.00
2022-10-19T03:43:08.799Z,100.00
2022-10-19T03:45:37.435Z,100.00
2022-10-19T03:48:06.503Z,100.00
2022-10-19T03:50:35.091Z,100.00
2022-10-19T03:55:38.615Z,100.00
2022-10-19T03:58:07.232Z,100.00
2022-10-19T04:00:35.895Z,100.00
2022-10-19T04:03:04.733Z,100.00
2022-10-19T04:05:33.380Z,100.00
2022-10-19T04:08:01.966Z,100.00
2022-10-19T04:10:32.247Z,100.00
2022-10-19T04:13:02.219Z,100.00
2022-10-19T04:15:30.829Z,100.00
2022-10-19T04:17:59.464Z,100.00
2022-10-19T04:20:28.065Z,100.00
2022-10-19T04:22:56.687Z,100.00
2022-10-19T04:25:25.324Z,100.00
2022-10-19T04:27:53.956Z,100.00
2022-10-19T04:30:23.928Z,100.00
2022-10-19T04:32:52.579Z,100.00
2022-10-19T04:35:21.214Z,100.00
2022-10-19T04:37:49.774Z,100.00
2022-10-19T04:40:18.566Z,100.00
2022-10-19T04:42:47.156Z,100.00
2022-10-19T04:45:19.178Z,100.00
2022-10-19T04:47:49.182Z,100.00
2022-10-19T04:50:20.268Z,100.00
2022-10-19T04:52:48.924Z,100.00
2022-10-19T04:55:17.553Z,100.00
2022-10-19T04:57:46.306Z,100.00
2022-10-19T05:00:15.828Z,100.00
2022-10-19T05:02:45.631Z,100.00
2022-10-19T05:05:16.539Z,100.00
2022-10-19T05:07:45.353Z,100.00
2022-10-19T05:10:14.331Z,100.00
2022-10-19T05:12:42.941Z,100.00
2022-10-19T05:15:12.174Z,100.00
2022-10-19T05:17:40.761Z,100.00
2022-10-19T05:20:11.247Z,100.00
2022-10-19T05:22:41.426Z,100.00
2022-10-19T05:25:10.487Z,100.00
2022-10-19T05:27:39.117Z,100.00
2022-10-19T05:30:09.073Z,100.00
2022-10-19T05:32:37.720Z,100.00
2022-10-19T05:35:07.821Z,100.00
2022-10-19T05:37:36.715Z,100.00
2022-10-19T05:40:08.660Z,100.00
2022-10-19T05:42:37.280Z,100.00
2022-10-19T05:45:07.001Z,100.00
2022-10-19T05:47:36.280Z,100.00
2022-10-19T05:50:05.830Z,100.00
2022-10-19T05:52:35.754Z,100.00
2022-10-19T05:55:04.897Z,100.00
2022-10-19T05:57:35.159Z,100.00
2022-10-19T06:00:05.262Z,100.00
2022-10-19T06:02:33.872Z,100.00
2022-10-19T06:05:02.623Z,100.00
2022-10-19T06:07:31.313Z,100.00
2022-10-19T06:10:00.327Z,100.00
2022-10-19T06:12:28.961Z,100.00
2022-10-19T06:14:58.959Z,100.00
2022-10-19T06:17:29.740Z,100.00
2022-10-19T06:19:58.335Z,100.00
2022-10-19T06:22:26.923Z,100.00
2022-10-19T06:24:56.345Z,100.00
2022-10-19T06:27:25.158Z,100.00
2022-10-19T06:29:53.821Z,100.00
2022-10-19T06:32:23.938Z,100.00
2022-10-19T06:34:56.473Z,100.00
2022-10-19T06:37:25.415Z,100.00
2022-10-19T06:39:54.092Z,100.00
2022-10-19T06:42:22.868Z,100.00
2022-10-19T06:44:51.548Z,100.00
2022-10-19T06:47:20.177Z,100.00
2022-10-19T06:49:50.133Z,100.00
2022-10-19T06:52:18.897Z,100.00
2022-10-19T06:54:47.486Z,100.00
2022-10-19T06:57:16.144Z,100.00
2022-10-19T06:59:44.753Z,100.00
2022-10-19T07:02:13.776Z,100.00
2022-10-19T07:04:42.423Z,100.00
2022-10-19T07:07:12.436Z,100.00
2022-10-19T07:09:41.577Z,100.00
2022-10-19T07:12:11.206Z,100.00
2022-10-19T07:14:39.972Z,100.00
2022-10-19T07:17:09.427Z,100.00
2022-10-19T07:19:38.510Z,100.00
2022-10-19T07:22:07.127Z,100.00
2022-10-19T07:24:37.049Z,100.00
2022-10-19T07:27:07.784Z,100.00
2022-10-19T07:29:36.390Z,100.00
2022-10-19T07:32:05.157Z,100.00
2022-10-19T07:34:34.441Z,100.00
2022-10-19T07:37:03.446Z,100.00
2022-10-19T07:39:32.253Z,100.00
2022-10-19T07:42:02.196Z,100.00
2022-10-19T07:44:30.802Z,100.00
2022-10-19T07:46:59.815Z,100.00
2022-10-19T07:49:28.752Z,100.00
2022-10-19T07:51:57.403Z,100.00
2022-10-19T07:54:27.541Z,100.00
2022-10-19T07:56:56.149Z,100.00
2022-10-19T07:59:26.218Z,100.00
2022-10-19T08:01:55.966Z,100.00
2022-10-19T08:04:55.987Z,100.00
2022-10-19T08:07:13.324Z,100.00
2022-10-19T08:09:53.235Z,100.00
2022-10-19T08:12:24.849Z,99.73
2022-10-19T08:14:55.897Z,100.00
2022-10-19T08:17:24.517Z,99.95
2022-10-19T08:19:53.240Z,99.36
2022-10-19T08:22:21.904Z,99.46
2022-10-19T08:24:50.569Z,99.25
2022-10-19T08:27:19.201Z,97.80
2022-10-19T08:29:47.863Z,97.56
2022-10-19T08:32:18.004Z,97.38
2022-10-19T08:34:46.645Z,96.70
2022-10-19T08:37:39.611Z,96.97
2022-10-19T08:40:04.024Z,97.58
2022-10-19T08:42:42.495Z,97.35
2022-10-19T08:45:34.553Z,96.97
2022-10-19T08:48:19.055Z,97.10
2022-10-19T08:50:49.121Z,97.52
2022-10-19T08:53:20.333Z,96.93
2022-10-19T08:55:54.811Z,96.76
2022-10-19T08:58:41.774Z,96.71
2022-10-19T09:01:14.728Z,96.91
2022-10-19T09:04:00.358Z,96.61
2022-10-19T09:06:33.183Z,96.51
2022-10-19T09:09:02.171Z,96.96
2022-10-19T09:11:32.545Z,96.81
2022-10-19T09:14:06.383Z,96.10
2022-10-19T09:16:35.979Z,95.51
2022-10-19T09:19:13.809Z,94.64
2022-10-19T09:21:47.692Z,95.76
2022-10-19T09:24:28.626Z,95.89
2022-10-19T09:26:58.636Z,95.85
2022-10-19T09:29:31.026Z,95.24
2022-10-19T09:32:02.182Z,93.59
2022-10-19T09:34:35.055Z,92.64
2022-10-19T09:37:04.093Z,93.11
2022-10-19T09:39:32.854Z,92.22
2022-10-19T09:42:09.088Z,90.35
2022-10-19T09:44:37.778Z,90.15
2022-10-19T09:47:18.800Z,90.01
2022-10-19T09:49:49.848Z,90.71
2022-10-19T09:52:26.930Z,91.83
2022-10-19T09:55:01.206Z,91.48
2022-10-19T09:57:30.334Z,91.79
2022-10-19T09:59:59.129Z,91.71
2022-10-19T10:02:33.226Z,91.84
2022-10-19T10:05:08.276Z,91.31
2022-10-19T10:07:39.002Z,91.36
2022-10-19T10:10:12.273Z,90.67
2022-10-19T10:12:41.956Z,91.37
2022-10-19T10:15:17.650Z,90.69
2022-10-19T10:17:47.753Z,89.94
2022-10-19T10:20:24.728Z,90.46
2022-10-19T10:22:57.497Z,90.83
2022-10-19T10:25:29.326Z,88.68
2022-10-19T10:28:01.511Z,87.65
2022-10-19T10:30:34.460Z,87.45
2022-10-19T10:33:13.215Z,88.24
2022-10-19T10:35:53.714Z,88.86
2022-10-19T10:38:25.084Z,89.99
2022-10-19T10:40:55.777Z,87.02
2022-10-19T10:43:32.039Z,87.32
2022-10-19T10:46:03.112Z,87.12
2022-10-19T10:48:34.418Z,86.67
2022-10-19T10:51:09.645Z,84.51
2022-10-19T10:53:40.489Z,83.39
2022-10-19T10:56:23.590Z,83.46
2022-10-19T10:58:57.502Z,83.02
2022-10-19T11:01:30.304Z,82.19
2022-10-19T11:04:04.638Z,81.08
2022-10-19T11:06:39.515Z,80.82
2022-10-19T11:09:15.955Z,79.79
2022-10-19T11:11:47.329Z,80.60
2022-10-19T11:14:33.855Z,80.03
2022-10-19T11:17:06.756Z,79.21
2022-10-19T11:19:40.679Z,79.02
2022-10-19T11:22:23.613Z,78.80
2022-10-19T11:25:16.634Z,78.15
2022-10-19T11:27:50.538Z,78.14
2022-10-19T11:30:21.596Z,78.45
2022-10-19T11:32:57.483Z,77.50
2022-10-19T11:35:50.281Z,78.84
2022-10-19T11:38:38.731Z,77.44
2022-10-19T11:41:18.667Z,77.81
2022-10-19T11:43:58.357Z,78.51
2022-10-19T11:46:32.056Z,76.64
2022-10-19T11:49:08.996Z,77.20
2022-10-19T11:51:40.840Z,79.85
2022-10-19T11:54:26.209Z,75.84
2022-10-19T11:57:03.996Z,76.48
2022-10-19T11:59:41.698Z,75.20
2022-10-19T12:02:22.629Z,75.39
2022-10-19T12:04:54.518Z,74.95
2022-10-19T12:07:45.517Z,74.69
2022-10-19T12:10:22.384Z,74.71
2022-10-19T12:12:53.120Z,74.35
2022-10-19T12:15:24.936Z,75.57
2022-10-19T12:17:55.826Z,75.77
2022-10-19T12:20:32.593Z,75.39
2022-10-19T12:23:03.389Z,74.70
2022-10-19T12:25:33.945Z,74.25
2022-10-19T12:28:04.213Z,74.22
2022-10-19T12:30:34.367Z,74.02
2022-10-19T12:33:08.831Z,74.02
2022-10-19T12:35:54.756Z,74.21
2022-10-19T12:38:28.909Z,73.35
2022-10-19T12:41:05.095Z,74.30
2022-10-19T12:43:40.715Z,74.41
2022-10-19T12:46:16.154Z,72.83
2022-10-19T12:48:44.868Z,73.62
2022-10-19T12:51:19.411Z,73.32
2022-10-19T12:53:49.825Z,72.79
2022-10-19T12:56:24.405Z,72.59
2022-10-19T12:58:56.840Z,73.02
2022-10-19T13:01:27.945Z,72.77
2022-10-19T13:04:09.885Z,73.59
2022-10-19T13:06:40.757Z,73.16
2022-10-19T13:09:10.904Z,73.13
2022-10-19T13:12:27.403Z,75.38
2022-10-19T13:14:57.203Z,74.41
2022-10-19T13:17:44.048Z,73.46
2022-10-19T13:20:52.632Z,74.22
2022-10-19T13:23:42.835Z,75.19
2022-10-19T13:26:33.879Z,73.99
2022-10-19T13:29:04.208Z,73.08
2022-10-19T13:31:34.356Z,74.35
2022-10-19T13:34:11.393Z,73.35
2022-10-19T13:36:40.252Z,70.83
2022-10-19T13:39:16.530Z,71.13
2022-10-19T13:41:48.508Z,70.71
2022-10-19T13:44:24.892Z,69.60
2022-10-19T13:47:09.129Z,72.17
2022-10-19T13:49:42.401Z,70.25
2022-10-19T13:52:45.159Z,70.00
2022-10-19T13:55:55.973Z,71.00
2022-10-19T13:58:35.582Z,70.60
2022-10-19T14:01:14.184Z,69.51
2022-10-19T14:03:58.716Z,70.13
2022-10-19T14:06:29.089Z,70.72
2022-10-19T14:09:18.780Z,70.37
2022-10-19T14:11:48.730Z,71.40
2022-10-19T14:14:19.538Z,71.98
2022-10-19T14:16:58.328Z,74.18
2022-10-19T14:19:34.073Z,73.52
2022-10-19T14:22:19.237Z,73.47
2022-10-19T14:24:48.017Z,74.03
2022-10-19T14:27:20.782Z,72.76
2022-10-19T14:29:50.973Z,72.34
2022-10-19T14:32:24.920Z,74.18
2022-10-19T14:34:54.609Z,72.88
2022-10-19T14:37:24.914Z,74.57
2022-10-19T14:40:02.988Z,74.49
2022-10-19T14:42:40.424Z,74.16
2022-10-19T14:45:18.237Z,74.78
2022-10-19T14:47:56.678Z,75.38
2022-10-19T14:50:29.905Z,75.11
2022-10-19T14:53:03.061Z,75.22
2022-10-19T14:55:34.950Z,76.52
2022-10-19T14:58:03.943Z,76.29
2022-10-19T15:00:33.899Z,76.03
2022-10-19T15:03:05.940Z,76.33
2022-10-19T15:05:37.749Z,76.25
2022-10-19T15:08:10.356Z,76.11
2022-10-19T15:10:43.233Z,76.90
2022-10-19T15:13:21.016Z,76.62
2022-10-19T15:15:52.024Z,75.73
2022-10-19T15:18:43.884Z,76.21
2022-10-19T15:21:15.129Z,76.95
2022-10-19T15:23:46.723Z,77.48
2022-10-19T15:26:18.929Z,77.58
2022-10-19T15:28:48.339Z,79.49
2022-10-19T15:31:19.877Z,77.58
2022-10-19T15:33:52.339Z,76.71
2022-10-19T15:36:22.288Z,78.44
2022-10-19T15:39:17.456Z,77.00
2022-10-19T15:41:49.996Z,78.12
2022-10-19T15:44:33.630Z,78.35
2022-10-19T15:47:20.832Z,80.24
2022-10-19T15:50:03.804Z,80.46
2022-10-19T15:52:34.136Z,81.01
2022-10-19T15:55:02.880Z,80.74
2022-10-19T15:57:34.149Z,79.87
2022-10-19T16:00:12.869Z,81.65
2022-10-19T16:02:41.771Z,81.80
2022-10-19T16:05:11.987Z,81.80
2022-10-19T16:07:41.633Z,82.08
2022-10-19T16:10:19.072Z,82.20
2022-10-19T16:12:47.909Z,81.20
2022-10-19T16:15:22.211Z,79.22
2022-10-19T16:17:53.628Z,79.76
2022-10-19T16:20:24.536Z,79.01
2022-10-19T16:22:54.209Z,79.90
2022-10-19T16:25:23.019Z,79.55
2022-10-19T16:27:51.737Z,80.92
2022-10-19T16:30:22.832Z,82.11
2022-10-19T16:32:51.463Z,82.49
2022-10-19T16:35:20.043Z,81.50
2022-10-19T16:37:50.035Z,82.67
2022-10-19T16:40:18.631Z,83.52
2022-10-19T16:42:47.254Z,84.55
2022-10-19T16:45:16.167Z,83.44
2022-10-19T16:47:45.328Z,84.54
2022-10-19T16:50:14.105Z,85.04
2022-10-19T16:52:42.769Z,85.10
2022-10-19T16:55:12.814Z,86.14
2022-10-19T16:57:41.951Z,86.45
2022-10-19T17:00:11.912Z,86.86
2022-10-19T17:02:43.070Z,87.11
2022-10-19T17:05:14.597Z,87.17
2022-10-19T17:07:43.288Z,87.58
2022-10-19T17:10:13.379Z,87.56
2022-10-19T17:12:42.097Z,88.04
2022-10-19T17:18:01.843Z,89.01
2022-10-19T17:20:30.672Z,89.02
2022-10-19T17:22:59.374Z,89.01
2022-10-19T17:25:29.359Z,89.01
2022-10-19T17:27:58.066Z,88.80
2022-10-19T17:30:27.008Z,89.32
2022-10-19T17:32:55.840Z,89.70
2022-10-19T17:35:24.853Z,90.24
2022-10-19T17:37:53.634Z,90.28
2022-10-19T17:40:22.581Z,90.41
2022-10-19T17:42:52.714Z,90.49
2022-10-19T17:45:21.431Z,91.39
2022-10-19T17:47:50.095Z,90.51
2022-10-19T17:50:18.827Z,90.65
2022-10-19T17:52:47.594Z,91.12
2022-10-19T17:55:16.486Z,90.82
2022-10-19T17:57:45.288Z,90.89
2022-10-19T18:00:16.080Z,91.37
2022-10-19T18:02:45.870Z,91.77
2022-10-19T18:05:14.569Z,91.55
2022-10-19T18:07:44.638Z,91.62
2022-10-19T18:10:14.456Z,92.12
2022-10-19T18:12:43.130Z,92.60
2022-10-19T18:15:11.867Z,92.22
2022-10-19T18:17:41.944Z,92.45
2022-10-19T18:20:11.823Z,92.42
2022-10-19T18:22:40.451Z,93.21
2022-10-19T18:25:09.758Z,93.33
2022-10-19T18:27:38.419Z,93.08
2022-10-19T18:30:09.202Z,93.56
2022-10-19T18:32:38.092Z,93.72
2022-10-19T18:35:10.581Z,93.69
2022-10-19T18:37:39.213Z,94.26
2022-10-19T18:40:10.362Z,94.57
2022-10-19T18:42:39.285Z,94.91
2022-10-19T18:45:13.185Z,94.55
2022-10-19T18:47:50.075Z,95.13
2022-10-19T18:50:22.618Z,95.02
2022-10-19T18:52:51.314Z,94.89
2022-10-19T18:55:20.053Z,95.09
2022-10-19T18:57:48.812Z,95.16
2022-10-19T19:00:17.716Z,95.15
2022-10-19T19:02:47.384Z,94.79
2022-10-19T19:05:16.382Z,94.81
2022-10-19T19:07:46.465Z,95.03
2022-10-19T19:10:15.259Z,95.04
2022-10-19T19:12:45.227Z,94.52
2022-10-19T19:15:16.996Z,94.96
2022-10-19T19:18:07.772Z,94.68
2022-10-19T19:20:36.683Z,95.73
2022-10-19T19:23:06.757Z,95.52
2022-10-19T19:25:35.427Z,94.94
2022-10-19T19:28:04.225Z,94.70
2022-10-19T19:30:32.892Z,94.57
2022-10-19T19:33:02.957Z,94.71
2022-10-19T19:35:31.798Z,94.97
2022-10-19T19:38:00.535Z,95.16
2022-10-19T19:40:30.874Z,95.47
2022-10-19T19:42:59.615Z,95.87
2022-10-19T19:45:28.297Z,96.50
2022-10-19T19:47:56.974Z,96.36
2022-10-19T19:50:25.767Z,96.78
2022-10-19T19:52:54.513Z,97.60
2022-10-19T19:55:23.117Z,97.43
2022-10-19T19:57:54.318Z,97.58
2022-10-19T20:00:23.801Z,97.69
2022-10-19T20:02:53.262Z,96.69
2022-10-19T20:05:22.554Z,95.61
2022-10-19T20:07:51.642Z,96.14
2022-10-19T20:10:20.460Z,95.75
2022-10-19T20:12:49.239Z,95.53
2022-10-19T20:15:20.527Z,95.60
2022-10-19T20:17:49.304Z,95.24
2022-10-19T20:20:18.964Z,95.34
2022-10-19T20:22:52.118Z,95.53
2022-10-19T20:25:21.083Z,95.84
2022-10-19T20:27:49.840Z,95.49
2022-10-19T20:30:20.049Z,96.07
2022-10-19T20:32:48.721Z,96.43
2022-10-19T20:35:17.519Z,96.12
2022-10-19T20:37:49.384Z,96.26
2022-10-19T20:40:18.720Z,96.47
2022-10-19T20:42:48.340Z,96.70
2022-10-19T20:45:17.147Z,97.24
2022-10-19T20:47:47.203Z,97.64
2022-10-19T20:50:18.091Z,97.78
2022-10-19T20:52:49.572Z,97.85
2022-10-19T20:55:20.265Z,97.53
2022-10-19T20:57:48.912Z,97.69
2022-10-19T21:00:18.051Z,97.79
2022-10-19T21:02:48.197Z,97.99
2022-10-19T21:05:17.093Z,98.41
2022-10-19T21:07:45.799Z,98.10
2022-10-19T21:10:14.454Z,98.67
2022-10-19T21:12:43.110Z,99.36
2022-10-19T21:15:12.341Z,99.41
2022-10-19T21:17:41.029Z,99.23
2022-10-19T21:20:11.841Z,99.02
2022-10-19T21:22:41.536Z,98.67
2022-10-19T21:25:11.593Z,99.57
2022-10-19T21:27:40.354Z,99.86
2022-10-19T21:30:10.027Z,99.53
2022-10-19T21:32:38.675Z,99.88
2022-10-19T21:35:07.964Z,99.50
2022-10-19T21:37:38.184Z,99.46
2022-10-19T21:40:08.393Z,99.42
2022-10-19T21:42:37.080Z,99.18
2022-10-19T21:45:28.659Z,98.80
2022-10-19T21:47:55.287Z,98.37
2022-10-19T21:50:23.931Z,99.23
2022-10-19T21:52:54.014Z,99.69
2022-10-19T21:55:24.723Z,99.64
2022-10-19T21:57:53.349Z,99.85
2022-10-19T22:00:22.049Z,99.87
2022-10-19T22:02:50.725Z,99.40
2022-10-19T22:05:19.472Z,99.05
2022-10-19T22:07:48.189Z,99.77
2022-10-19T22:10:18.427Z,100.00
2022-10-19T22:12:47.166Z,99.68
2022-10-19T22:15:15.888Z,98.94
2022-10-19T22:17:44.731Z,99.49
2022-10-19T22:20:13.453Z,100.00
2022-10-19T22:22:42.115Z,100.00
2022-10-19T22:25:10.815Z,100.00
2022-10-19T22:27:40.828Z,100.00
2022-10-19T22:30:12.107Z,100.00
2022-10-19T22:32:40.852Z,100.00
2022-10-19T22:35:09.989Z,100.00
2022-10-19T22:37:38.646Z,100.00
2022-10-19T22:40:08.310Z,100.00
2022-10-19T22:42:37.534Z,100.00
2022-10-19T22:45:09.278Z,100.00
2022-10-19T22:47:37.932Z,100.00
2022-10-19T22:50:09.459Z,100.00
2022-10-19T22:52:38.688Z,99.71
2022-10-19T22:55:08.082Z,99.49
2022-10-19T22:57:36.731Z,99.09
2022-10-19T23:00:06.151Z,99.40
2022-10-19T23:02:36.349Z,99.93
2022-10-19T23:05:05.560Z,99.79
2022-10-19T23:07:34.476Z,99.86
2022-10-19T23:10:03.233Z,99.54
2022-10-19T23:12:31.965Z,99.51
2022-10-19T23:15:00.611Z,99.11
2022-10-19T23:17:29.211Z,98.84
2022-10-19T23:19:59.231Z,97.71
2022-10-19T23:22:27.895Z,98.19
2022-10-19T23:24:56.520Z,98.09
2022-10-19T23:27:25.142Z,98.12
2022-10-19T23:29:53.819Z,97.55
2022-10-19T23:32:22.582Z,97.49
2022-10-19T23:34:51.188Z,97.72
2022-10-19T23:37:21.455Z,98.00
2022-10-19T23:39:50.138Z,98.21
2022-10-19T23:42:18.881Z,98.79
2022-10-19T23:44:47.527Z,98.41
2022-10-19T23:47:16.169Z,98.59
2022-10-19T23:49:44.752Z,99.14
2022-10-19T23:52:13.825Z,99.16
2022-10-19T23:54:43.829Z,99.66
2022-10-19T23:57:12.464Z,99.82
2022-10-19T23:59:41.108Z,100.00
